sensor_id;sensor_type;location;lat;lon;timestamp;P1;durP1;ratioP1;P2;durP2;ratioP2
49858;SDS011;35756;52.346;13.622;2023-11-19T00:00:18;7.28;;;4.30;;
49858;SDS011;35756;52.346;13.622;2023-11-19T00:02:43;7.80;;;4.47;;
49858;SDS011;35756;52.346;13.622;2023-11-19T00:05:09;7.15;;;4.53;;
49858;SDS011;35756;52.346;13.622;2023-11-19T00:07:36;6.90;;;4.22;;
49858;SDS011;35756;52.346;13.622;2023-11-19T00:10:01;7.32;;;4.25;;
49858;SDS011;35756;52.346;13.622;2023-11-19T00:12:29;7.10;;;4.45;;
49858;SDS011;35756;52.346;13.622;2023-11-19T00:14:54;8.30;;;4.38;;
49858;SDS011;35756;52.346;13.622;2023-11-19T00:17:20;6.25;;;3.90;;
49858;SDS011;35756;52.346;13.622;2023-11-19T00:19:45;5.25;;;3.50;;
49858;SDS011;35756;52.346;13.622;2023-11-19T00:22:11;7.53;;;4.35;;
49858;SDS011;35756;52.346;13.622;2023-11-19T00:24:36;7.45;;;4.05;;
49858;SDS011;35756;52.346;13.622;2023-11-19T00:27:02;6.72;;;3.88;;
49858;SDS011;35756;52.346;13.622;2023-11-19T00:29:27;6.72;;;4.35;;
49858;SDS011;35756;52.346;13.622;2023-11-19T00:31:52;9.73;;;3.92;;
49858;SDS011;35756;52.346;13.622;2023-11-19T00:34:18;5.88;;;3.58;;
49858;SDS011;35756;52.346;13.622;2023-11-19T00:36:46;6.90;;;4.50;;
49858;SDS011;35756;52.346;13.622;2023-11-19T00:39:11;8.30;;;5.00;;
49858;SDS011;35756;52.346;13.622;2023-11-19T00:41:39;11.05;;;5.85;;
49858;SDS011;35756;52.346;13.622;2023-11-19T00:44:05;8.23;;;3.97;;
49858;SDS011;35756;52.346;13.622;2023-11-19T00:46:30;8.18;;;4.38;;
49858;SDS011;35756;52.346;13.622;2023-11-19T00:48:56;6.00;;;4.50;;
49858;SDS011;35756;52.346;13.622;2023-11-19T00:51:23;6.82;;;4.45;;
49858;SDS011;35756;52.346;13.622;2023-11-19T00:53:49;7.15;;;4.05;;
49858;SDS011;35756;52.346;13.622;2023-11-19T00:56:14;6.10;;;3.92;;
49858;SDS011;35756;52.346;13.622;2023-11-19T00:58:39;7.53;;;4.38;;
49858;SDS011;35756;52.346;13.622;2023-11-19T01:01:05;7.78;;;4.60;;
49858;SDS011;35756;52.346;13.622;2023-11-19T01:03:30;8.15;;;4.63;;
49858;SDS011;35756;52.346;13.622;2023-11-19T01:05:56;6.00;;;3.70;;
49858;SDS011;35756;52.346;13.622;2023-11-19T01:08:21;6.43;;;3.65;;
49858;SDS011;35756;52.346;13.622;2023-11-19T01:10:46;8.90;;;4.40;;
49858;SDS011;35756;52.346;13.622;2023-11-19T01:13:12;7.20;;;3.67;;
49858;SDS011;35756;52.346;13.622;2023-11-19T01:15:38;8.48;;;5.55;;
49858;SDS011;35756;52.346;13.622;2023-11-19T01:18:04;8.10;;;4.78;;
49858;SDS011;35756;52.346;13.622;2023-11-19T01:20:30;8.38;;;4.50;;
49858;SDS011;35756;52.346;13.622;2023-11-19T01:22:55;7.78;;;4.40;;
49858;SDS011;35756;52.346;13.622;2023-11-19T01:25:21;7.65;;;3.53;;
49858;SDS011;35756;52.346;13.622;2023-11-19T01:27:46;8.10;;;4.80;;
49858;SDS011;35756;52.346;13.622;2023-11-19T01:30:11;7.72;;;4.07;;
49858;SDS011;35756;52.346;13.622;2023-11-19T01:32:40;7.85;;;4.30;;
49858;SDS011;35756;52.346;13.622;2023-11-19T01:35:06;6.78;;;4.68;;
49858;SDS011;35756;52.346;13.622;2023-11-19T01:37:31;5.60;;;3.70;;
49858;SDS011;35756;52.346;13.622;2023-11-19T01:39:57;8.52;;;4.22;;
49858;SDS011;35756;52.346;13.622;2023-11-19T01:42:22;8.45;;;4.53;;
49858;SDS011;35756;52.346;13.622;2023-11-19T01:44:59;8.23;;;4.22;;
49858;SDS011;35756;52.346;13.622;2023-11-19T01:47:26;6.13;;;3.95;;
49858;SDS011;35756;52.346;13.622;2023-11-19T01:49:52;6.63;;;4.28;;
49858;SDS011;35756;52.346;13.622;2023-11-19T01:52:17;12.55;;;4.95;;
49858;SDS011;35756;52.346;13.622;2023-11-19T01:54:43;6.45;;;3.30;;
49858;SDS011;35756;52.346;13.622;2023-11-19T01:57:10;6.50;;;3.60;;
49858;SDS011;35756;52.346;13.622;2023-11-19T01:59:35;7.38;;;4.15;;
49858;SDS011;35756;52.346;13.622;2023-11-19T02:02:00;6.00;;;3.78;;
49858;SDS011;35756;52.346;13.622;2023-11-19T02:04:26;7.35;;;4.20;;
49858;SDS011;35756;52.346;13.622;2023-11-19T02:06:51;6.68;;;4.00;;
49858;SDS011;35756;52.346;13.622;2023-11-19T02:09:19;6.43;;;3.83;;
49858;SDS011;35756;52.346;13.622;2023-11-19T02:11:45;5.68;;;3.20;;
49858;SDS011;35756;52.346;13.622;2023-11-19T02:14:14;9.13;;;4.07;;
49858;SDS011;35756;52.346;13.622;2023-11-19T02:16:39;9.63;;;4.47;;
49858;SDS011;35756;52.346;13.622;2023-11-19T02:19:04;5.40;;;3.35;;
49858;SDS011;35756;52.346;13.622;2023-11-19T02:21:31;7.28;;;4.05;;
49858;SDS011;35756;52.346;13.622;2023-11-19T02:23:56;8.77;;;4.00;;
49858;SDS011;35756;52.346;13.622;2023-11-19T02:26:25;6.75;;;3.67;;
49858;SDS011;35756;52.346;13.622;2023-11-19T02:28:54;7.95;;;4.25;;
49858;SDS011;35756;52.346;13.622;2023-11-19T02:31:19;7.60;;;3.90;;
49858;SDS011;35756;52.346;13.622;2023-11-19T02:33:45;7.60;;;3.90;;
49858;SDS011;35756;52.346;13.622;2023-11-19T02:36:10;5.80;;;3.78;;
49858;SDS011;35756;52.346;13.622;2023-11-19T02:38:36;6.65;;;3.38;;
49858;SDS011;35756;52.346;13.622;2023-11-19T02:41:03;8.43;;;3.95;;
49858;SDS011;35756;52.346;13.622;2023-11-19T02:43:31;6.13;;;3.45;;
49858;SDS011;35756;52.346;13.622;2023-11-19T02:45:58;5.95;;;3.50;;
49858;SDS011;35756;52.346;13.622;2023-11-19T02:48:25;6.60;;;3.58;;
49858;SDS011;35756;52.346;13.622;2023-11-19T02:50:50;6.55;;;3.55;;
49858;SDS011;35756;52.346;13.622;2023-11-19T02:53:17;6.55;;;4.07;;
49858;SDS011;35756;52.346;13.622;2023-11-19T02:55:42;5.80;;;3.55;;
49858;SDS011;35756;52.346;13.622;2023-11-19T02:58:13;9.32;;;3.72;;
49858;SDS011;35756;52.346;13.622;2023-11-19T03:00:45;6.38;;;3.67;;
49858;SDS011;35756;52.346;13.622;2023-11-19T03:03:19;6.82;;;3.80;;
49858;SDS011;35756;52.346;13.622;2023-11-19T03:05:48;6.97;;;3.78;;
49858;SDS011;35756;52.346;13.622;2023-11-19T03:08:14;5.60;;;3.67;;
49858;SDS011;35756;52.346;13.622;2023-11-19T03:10:42;6.15;;;3.53;;
49858;SDS011;35756;52.346;13.622;2023-11-19T03:13:10;6.43;;;3.33;;
49858;SDS011;35756;52.346;13.622;2023-11-19T03:15:38;8.23;;;3.17;;
49858;SDS011;35756;52.346;13.622;2023-11-19T03:18:03;7.70;;;3.58;;
49858;SDS011;35756;52.346;13.622;2023-11-19T03:20:28;6.10;;;3.17;;
49858;SDS011;35756;52.346;13.622;2023-11-19T03:22:55;7.70;;;3.80;;
49858;SDS011;35756;52.346;13.622;2023-11-19T03:25:20;7.70;;;3.97;;
49858;SDS011;35756;52.346;13.622;2023-11-19T03:27:45;5.85;;;3.45;;
49858;SDS011;35756;52.346;13.622;2023-11-19T03:30:11;7.57;;;4.05;;
49858;SDS011;35756;52.346;13.622;2023-11-19T03:32:36;6.13;;;3.25;;
49858;SDS011;35756;52.346;13.622;2023-11-19T03:35:03;6.10;;;3.30;;
49858;SDS011;35756;52.346;13.622;2023-11-19T03:37:29;5.15;;;3.20;;
49858;SDS011;35756;52.346;13.622;2023-11-19T03:39:55;7.20;;;3.75;;
49858;SDS011;35756;52.346;13.622;2023-11-19T03:42:24;6.82;;;3.00;;
49858;SDS011;35756;52.346;13.622;2023-11-19T03:44:49;6.43;;;3.53;;
49858;SDS011;35756;52.346;13.622;2023-11-19T03:47:17;7.60;;;3.85;;
49858;SDS011;35756;52.346;13.622;2023-11-19T03:49:42;5.25;;;3.17;;
49858;SDS011;35756;52.346;13.622;2023-11-19T03:52:13;5.95;;;3.35;;
49858;SDS011;35756;52.346;13.622;2023-11-19T03:54:38;6.85;;;3.65;;
49858;SDS011;35756;52.346;13.622;2023-11-19T03:57:04;8.32;;;3.83;;
49858;SDS011;35756;52.346;13.622;2023-11-19T03:59:30;5.40;;;3.05;;
49858;SDS011;35756;52.346;13.622;2023-11-19T04:01:55;4.97;;;3.10;;
49858;SDS011;35756;52.346;13.622;2023-11-19T04:04:21;5.25;;;2.85;;
49858;SDS011;35756;52.346;13.622;2023-11-19T04:06:46;6.22;;;3.72;;
49858;SDS011;35756;52.346;13.622;2023-11-19T04:09:12;6.50;;;3.40;;
49858;SDS011;35756;52.346;13.622;2023-11-19T04:11:37;7.00;;;3.83;;
49858;SDS011;35756;52.346;13.622;2023-11-19T04:14:03;6.47;;;3.50;;
49858;SDS011;35756;52.346;13.622;2023-11-19T04:16:28;6.88;;;3.67;;
49858;SDS011;35756;52.346;13.622;2023-11-19T04:18:53;6.53;;;4.20;;
49858;SDS011;35756;52.346;13.622;2023-11-19T04:21:19;6.85;;;3.72;;
49858;SDS011;35756;52.346;13.622;2023-11-19T04:23:44;7.65;;;4.00;;
49858;SDS011;35756;52.346;13.622;2023-11-19T04:26:09;8.00;;;4.10;;
49858;SDS011;35756;52.346;13.622;2023-11-19T04:28:35;6.00;;;3.85;;
49858;SDS011;35756;52.346;13.622;2023-11-19T04:31:00;7.18;;;4.10;;
49858;SDS011;35756;52.346;13.622;2023-11-19T04:33:25;6.93;;;4.00;;
49858;SDS011;35756;52.346;13.622;2023-11-19T04:35:51;8.38;;;4.07;;
49858;SDS011;35756;52.346;13.622;2023-11-19T04:38:16;7.45;;;4.20;;
49858;SDS011;35756;52.346;13.622;2023-11-19T04:40:41;7.18;;;3.92;;
49858;SDS011;35756;52.346;13.622;2023-11-19T04:43:07;7.35;;;3.67;;
49858;SDS011;35756;52.346;13.622;2023-11-19T04:45:32;6.63;;;3.50;;
49858;SDS011;35756;52.346;13.622;2023-11-19T04:47:57;9.95;;;4.03;;
49858;SDS011;35756;52.346;13.622;2023-11-19T04:50:23;6.28;;;3.95;;
49858;SDS011;35756;52.346;13.622;2023-11-19T04:52:50;8.00;;;4.13;;
49858;SDS011;35756;52.346;13.622;2023-11-19T04:55:16;8.25;;;3.75;;
49858;SDS011;35756;52.346;13.622;2023-11-19T04:57:41;8.52;;;4.32;;
49858;SDS011;35756;52.346;13.622;2023-11-19T05:00:08;9.43;;;4.63;;
49858;SDS011;35756;52.346;13.622;2023-11-19T05:02:35;8.57;;;4.53;;
49858;SDS011;35756;52.346;13.622;2023-11-19T05:05:01;6.70;;;3.63;;
49858;SDS011;35756;52.346;13.622;2023-11-19T05:07:26;5.75;;;3.55;;
49858;SDS011;35756;52.346;13.622;2023-11-19T05:09:51;8.10;;;4.35;;
49858;SDS011;35756;52.346;13.622;2023-11-19T05:12:17;8.63;;;4.38;;
49858;SDS011;35756;52.346;13.622;2023-11-19T05:14:42;8.23;;;4.43;;
49858;SDS011;35756;52.346;13.622;2023-11-19T05:17:14;8.50;;;4.28;;
49858;SDS011;35756;52.346;13.622;2023-11-19T05:19:39;10.23;;;4.50;;
49858;SDS011;35756;52.346;13.622;2023-11-19T05:22:04;9.15;;;4.15;;
49858;SDS011;35756;52.346;13.622;2023-11-19T05:24:31;7.55;;;3.92;;
49858;SDS011;35756;52.346;13.622;2023-11-19T05:26:56;6.60;;;3.78;;
49858;SDS011;35756;52.346;13.622;2023-11-19T05:29:23;7.40;;;4.60;;
49858;SDS011;35756;52.346;13.622;2023-11-19T05:31:48;9.60;;;4.45;;
49858;SDS011;35756;52.346;13.622;2023-11-19T05:34:13;7.50;;;4.00;;
49858;SDS011;35756;52.346;13.622;2023-11-19T05:36:40;6.63;;;4.00;;
49858;SDS011;35756;52.346;13.622;2023-11-19T05:39:05;7.72;;;4.00;;
49858;SDS011;35756;52.346;13.622;2023-11-19T05:41:30;6.85;;;4.65;;
49858;SDS011;35756;52.346;13.622;2023-11-19T05:43:56;8.88;;;4.47;;
49858;SDS011;35756;52.346;13.622;2023-11-19T05:46:21;6.68;;;3.90;;
49858;SDS011;35756;52.346;13.622;2023-11-19T05:48:46;10.70;;;4.18;;
49858;SDS011;35756;52.346;13.622;2023-11-19T05:51:12;7.63;;;3.95;;
49858;SDS011;35756;52.346;13.622;2023-11-19T05:53:39;5.75;;;4.05;;
49858;SDS011;35756;52.346;13.622;2023-11-19T05:56:05;6.68;;;4.53;;
49858;SDS011;35756;52.346;13.622;2023-11-19T05:58:32;7.03;;;3.97;;
49858;SDS011;35756;52.346;13.622;2023-11-19T06:00:58;5.72;;;3.75;;
49858;SDS011;35756;52.346;13.622;2023-11-19T06:03:25;6.90;;;4.13;;
49858;SDS011;35756;52.346;13.622;2023-11-19T06:05:51;6.57;;;3.85;;
49858;SDS011;35756;52.346;13.622;2023-11-19T06:08:17;7.40;;;3.97;;
49858;SDS011;35756;52.346;13.622;2023-11-19T06:10:43;5.93;;;3.63;;
49858;SDS011;35756;52.346;13.622;2023-11-19T06:13:11;8.23;;;4.18;;
49858;SDS011;35756;52.346;13.622;2023-11-19T06:15:36;7.25;;;4.25;;
49858;SDS011;35756;52.346;13.622;2023-11-19T06:18:02;7.25;;;4.05;;
49858;SDS011;35756;52.346;13.622;2023-11-19T06:20:31;7.53;;;4.20;;
49858;SDS011;35756;52.346;13.622;2023-11-19T06:22:57;6.47;;;3.47;;
49858;SDS011;35756;52.346;13.622;2023-11-19T06:25:23;6.22;;;3.58;;
49858;SDS011;35756;52.346;13.622;2023-11-19T06:27:49;7.35;;;4.00;;
49858;SDS011;35756;52.346;13.622;2023-11-19T06:30:14;7.53;;;3.92;;
49858;SDS011;35756;52.346;13.622;2023-11-19T06:32:39;9.65;;;4.13;;
49858;SDS011;35756;52.346;13.622;2023-11-19T06:35:05;6.68;;;3.40;;
49858;SDS011;35756;52.346;13.622;2023-11-19T06:37:30;6.53;;;3.22;;
49858;SDS011;35756;52.346;13.622;2023-11-19T06:39:56;5.55;;;3.47;;
49858;SDS011;35756;52.346;13.622;2023-11-19T06:42:21;7.85;;;4.03;;
49858;SDS011;35756;52.346;13.622;2023-11-19T06:44:46;6.43;;;3.53;;
49858;SDS011;35756;52.346;13.622;2023-11-19T06:47:11;5.53;;;3.65;;
49858;SDS011;35756;52.346;13.622;2023-11-19T06:49:37;6.38;;;3.65;;
49858;SDS011;35756;52.346;13.622;2023-11-19T06:52:02;6.00;;;3.28;;
49858;SDS011;35756;52.346;13.622;2023-11-19T06:54:28;5.93;;;3.65;;
49858;SDS011;35756;52.346;13.622;2023-11-19T06:56:53;3.90;;;2.88;;
49858;SDS011;35756;52.346;13.622;2023-11-19T06:59:18;5.78;;;3.70;;
49858;SDS011;35756;52.346;13.622;2023-11-19T07:01:44;6.97;;;3.58;;
49858;SDS011;35756;52.346;13.622;2023-11-19T07:04:12;6.13;;;3.42;;
49858;SDS011;35756;52.346;13.622;2023-11-19T07:06:37;5.97;;;3.40;;
49858;SDS011;35756;52.346;13.622;2023-11-19T07:09:03;6.22;;;3.92;;
49858;SDS011;35756;52.346;13.622;2023-11-19T07:11:40;5.90;;;3.13;;
49858;SDS011;35756;52.346;13.622;2023-11-19T07:14:07;6.53;;;3.20;;
49858;SDS011;35756;52.346;13.622;2023-11-19T07:16:33;6.32;;;3.55;;
49858;SDS011;35756;52.346;13.622;2023-11-19T07:18:59;6.10;;;3.30;;
49858;SDS011;35756;52.346;13.622;2023-11-19T07:21:25;5.45;;;3.50;;
49858;SDS011;35756;52.346;13.622;2023-11-19T07:23:51;6.68;;;3.22;;
49858;SDS011;35756;52.346;13.622;2023-11-19T07:26:17;6.35;;;3.58;;
49858;SDS011;35756;52.346;13.622;2023-11-19T07:28:42;6.78;;;3.38;;
49858;SDS011;35756;52.346;13.622;2023-11-19T07:31:10;4.72;;;3.05;;
49858;SDS011;35756;52.346;13.622;2023-11-19T07:33:35;5.53;;;3.20;;
49858;SDS011;35756;52.346;13.622;2023-11-19T07:36:00;4.38;;;2.67;;
49858;SDS011;35756;52.346;13.622;2023-11-19T07:38:26;6.63;;;3.38;;
49858;SDS011;35756;52.346;13.622;2023-11-19T07:40:51;5.15;;;3.17;;
49858;SDS011;35756;52.346;13.622;2023-11-19T07:43:16;4.72;;;3.15;;
49858;SDS011;35756;52.346;13.622;2023-11-19T07:45:41;6.55;;;3.10;;
49858;SDS011;35756;52.346;13.622;2023-11-19T07:48:08;5.50;;;3.28;;
49858;SDS011;35756;52.346;13.622;2023-11-19T07:50:34;5.40;;;2.80;;
49858;SDS011;35756;52.346;13.622;2023-11-19T07:52:59;6.55;;;3.70;;
49858;SDS011;35756;52.346;13.622;2023-11-19T07:55:25;9.68;;;3.28;;
49858;SDS011;35756;52.346;13.622;2023-11-19T07:57:50;4.60;;;2.97;;
49858;SDS011;35756;52.346;13.622;2023-11-19T08:00:16;7.32;;;3.30;;
49858;SDS011;35756;52.346;13.622;2023-11-19T08:02:41;6.30;;;3.22;;
49858;SDS011;35756;52.346;13.622;2023-11-19T08:05:06;4.43;;;3.08;;
49858;SDS011;35756;52.346;13.622;2023-11-19T08:07:32;6.70;;;3.45;;
49858;SDS011;35756;52.346;13.622;2023-11-19T08:09:57;6.60;;;3.83;;
49858;SDS011;35756;52.346;13.622;2023-11-19T08:12:22;6.68;;;3.53;;
49858;SDS011;35756;52.346;13.622;2023-11-19T08:14:48;4.95;;;3.45;;
49858;SDS011;35756;52.346;13.622;2023-11-19T08:17:14;8.10;;;4.10;;
49858;SDS011;35756;52.346;13.622;2023-11-19T08:19:39;5.50;;;3.50;;
49858;SDS011;35756;52.346;13.622;2023-11-19T08:22:04;6.55;;;3.55;;
49858;SDS011;35756;52.346;13.622;2023-11-19T08:24:30;6.05;;;3.55;;
49858;SDS011;35756;52.346;13.622;2023-11-19T08:26:55;5.25;;;3.50;;
49858;SDS011;35756;52.346;13.622;2023-11-19T08:29:20;6.13;;;4.38;;
49858;SDS011;35756;52.346;13.622;2023-11-19T08:31:46;4.95;;;3.10;;
49858;SDS011;35756;52.346;13.622;2023-11-19T08:34:11;6.50;;;3.55;;
49858;SDS011;35756;52.346;13.622;2023-11-19T08:36:37;5.55;;;3.38;;
49858;SDS011;35756;52.346;13.622;2023-11-19T08:39:02;5.60;;;3.40;;
49858;SDS011;35756;52.346;13.622;2023-11-19T08:41:28;5.07;;;3.50;;
49858;SDS011;35756;52.346;13.622;2023-11-19T08:43:53;5.47;;;3.25;;
49858;SDS011;35756;52.346;13.622;2023-11-19T08:46:19;5.82;;;2.95;;
49858;SDS011;35756;52.346;13.622;2023-11-19T08:48:44;6.40;;;3.72;;
49858;SDS011;35756;52.346;13.622;2023-11-19T08:51:09;3.97;;;2.85;;
49858;SDS011;35756;52.346;13.622;2023-11-19T08:53:35;8.25;;;3.40;;
49858;SDS011;35756;52.346;13.622;2023-11-19T08:56:00;5.20;;;3.42;;
49858;SDS011;35756;52.346;13.622;2023-11-19T08:58:27;4.68;;;3.00;;
49858;SDS011;35756;52.346;13.622;2023-11-19T09:00:53;5.50;;;3.03;;
49858;SDS011;35756;52.346;13.622;2023-11-19T09:03:18;5.18;;;3.30;;
49858;SDS011;35756;52.346;13.622;2023-11-19T09:05:43;6.50;;;3.30;;
49858;SDS011;35756;52.346;13.622;2023-11-19T09:08:08;5.80;;;3.28;;
49858;SDS011;35756;52.346;13.622;2023-11-19T09:10:34;4.45;;;2.85;;
49858;SDS011;35756;52.346;13.622;2023-11-19T09:12:59;4.90;;;2.65;;
49858;SDS011;35756;52.346;13.622;2023-11-19T09:15:24;5.38;;;3.10;;
49858;SDS011;35756;52.346;13.622;2023-11-19T09:17:50;4.30;;;2.78;;
49858;SDS011;35756;52.346;13.622;2023-11-19T09:20:15;4.30;;;2.60;;
49858;SDS011;35756;52.346;13.622;2023-11-19T09:22:43;4.25;;;2.65;;
49858;SDS011;35756;52.346;13.622;2023-11-19T09:25:09;3.95;;;2.50;;
49858;SDS011;35756;52.346;13.622;2023-11-19T09:27:34;4.60;;;3.00;;
49858;SDS011;35756;52.346;13.622;2023-11-19T09:30:00;3.55;;;2.75;;
49858;SDS011;35756;52.346;13.622;2023-11-19T09:32:25;3.35;;;2.47;;
49858;SDS011;35756;52.346;13.622;2023-11-19T09:34:50;3.80;;;2.45;;
49858;SDS011;35756;52.346;13.622;2023-11-19T09:37:16;4.60;;;2.45;;
49858;SDS011;35756;52.346;13.622;2023-11-19T09:39:41;2.60;;;2.10;;
49858;SDS011;35756;52.346;13.622;2023-11-19T09:42:08;3.88;;;2.35;;
49858;SDS011;35756;52.346;13.622;2023-11-19T09:44:34;2.90;;;2.50;;
49858;SDS011;35756;52.346;13.622;2023-11-19T09:47:00;3.70;;;2.47;;
49858;SDS011;35756;52.346;13.622;2023-11-19T09:49:25;3.85;;;2.20;;
49858;SDS011;35756;52.346;13.622;2023-11-19T09:51:51;3.42;;;1.98;;
49858;SDS011;35756;52.346;13.622;2023-11-19T09:54:17;2.72;;;2.10;;
49858;SDS011;35756;52.346;13.622;2023-11-19T09:56:42;3.45;;;2.15;;
49858;SDS011;35756;52.346;13.622;2023-11-19T09:59:08;6.35;;;2.78;;
49858;SDS011;35756;52.346;13.622;2023-11-19T10:01:35;4.03;;;1.83;;
49858;SDS011;35756;52.346;13.622;2023-11-19T10:04:01;3.47;;;1.98;;
49858;SDS011;35756;52.346;13.622;2023-11-19T10:06:26;2.67;;;1.90;;
49858;SDS011;35756;52.346;13.622;2023-11-19T10:08:52;2.58;;;1.75;;
49858;SDS011;35756;52.346;13.622;2023-11-19T10:11:18;3.38;;;1.92;;
49858;SDS011;35756;52.346;13.622;2023-11-19T10:13:43;2.53;;;1.55;;
49858;SDS011;35756;52.346;13.622;2023-11-19T10:16:10;3.42;;;1.77;;
49858;SDS011;35756;52.346;13.622;2023-11-19T10:18:48;2.40;;;1.63;;
49858;SDS011;35756;52.346;13.622;2023-11-19T10:21:17;4.20;;;1.90;;
49858;SDS011;35756;52.346;13.622;2023-11-19T10:23:47;3.78;;;2.00;;
49858;SDS011;35756;52.346;13.622;2023-11-19T10:26:14;2.38;;;1.48;;
49858;SDS011;35756;52.346;13.622;2023-11-19T10:28:39;4.70;;;1.83;;
49858;SDS011;35756;52.346;13.622;2023-11-19T10:31:10;1.92;;;1.30;;
49858;SDS011;35756;52.346;13.622;2023-11-19T10:33:36;2.58;;;1.75;;
49858;SDS011;35756;52.346;13.622;2023-11-19T10:36:01;3.88;;;1.80;;
49858;SDS011;35756;52.346;13.622;2023-11-19T10:38:26;3.67;;;1.70;;
49858;SDS011;35756;52.346;13.622;2023-11-19T10:40:52;2.92;;;1.77;;
49858;SDS011;35756;52.346;13.622;2023-11-19T10:43:18;3.35;;;1.50;;
49858;SDS011;35756;52.346;13.622;2023-11-19T10:45:43;4.05;;;1.65;;
49858;SDS011;35756;52.346;13.622;2023-11-19T10:48:09;5.28;;;1.98;;
49858;SDS011;35756;52.346;13.622;2023-11-19T10:50:37;4.88;;;1.85;;
49858;SDS011;35756;52.346;13.622;2023-11-19T10:53:04;1.73;;;1.30;;
49858;SDS011;35756;52.346;13.622;2023-11-19T10:55:30;3.30;;;1.63;;
49858;SDS011;35756;52.346;13.622;2023-11-19T10:58:03;3.08;;;1.67;;
49858;SDS011;35756;52.346;13.622;2023-11-19T11:00:39;3.33;;;1.98;;
49858;SDS011;35756;52.346;13.622;2023-11-19T11:03:11;2.53;;;1.50;;
49858;SDS011;35756;52.346;13.622;2023-11-19T11:05:40;7.20;;;2.03;;
49858;SDS011;35756;52.346;13.622;2023-11-19T11:08:06;5.30;;;1.85;;
49858;SDS011;35756;52.346;13.622;2023-11-19T11:10:32;3.08;;;1.60;;
49858;SDS011;35756;52.346;13.622;2023-11-19T11:13:02;5.00;;;2.10;;
49858;SDS011;35756;52.346;13.622;2023-11-19T11:15:28;2.80;;;1.55;;
49858;SDS011;35756;52.346;13.622;2023-11-19T11:17:59;3.63;;;1.42;;
49858;SDS011;35756;52.346;13.622;2023-11-19T11:20:26;4.70;;;1.95;;
49858;SDS011;35756;52.346;13.622;2023-11-19T11:23:11;5.25;;;2.10;;
49858;SDS011;35756;52.346;13.622;2023-11-19T11:26:21;3.25;;;1.75;;
49858;SDS011;35756;52.346;13.622;2023-11-19T11:31:45;3.15;;;1.90;;
49858;SDS011;35756;52.346;13.622;2023-11-19T11:39:31;6.72;;;2.20;;
49858;SDS011;35756;52.346;13.622;2023-11-19T11:47:26;5.57;;;2.40;;
49858;SDS011;35756;52.346;13.622;2023-11-19T11:49:53;3.97;;;1.70;;
49858;SDS011;35756;52.346;13.622;2023-11-19T11:52:19;5.13;;;2.00;;
49858;SDS011;35756;52.346;13.622;2023-11-19T11:54:45;6.85;;;2.58;;
49858;SDS011;35756;52.346;13.622;2023-11-19T11:57:12;11.30;;;2.47;;
49858;SDS011;35756;52.346;13.622;2023-11-19T12:02:09;9.30;;;2.60;;
49858;SDS011;35756;52.346;13.622;2023-11-19T12:04:36;7.38;;;2.10;;
49858;SDS011;35756;52.346;13.622;2023-11-19T12:07:15;4.30;;;2.08;;
49858;SDS011;35756;52.346;13.622;2023-11-19T12:09:42;6.63;;;2.33;;
49858;SDS011;35756;52.346;13.622;2023-11-19T12:20:01;4.82;;;2.38;;
49858;SDS011;35756;52.346;13.622;2023-11-19T12:22:39;7.72;;;2.15;;
49858;SDS011;35756;52.346;13.622;2023-11-19T12:25:06;5.88;;;2.17;;
49858;SDS011;35756;52.346;13.622;2023-11-19T12:27:32;3.33;;;2.08;;
49858;SDS011;35756;52.346;13.622;2023-11-19T12:29:58;5.15;;;1.98;;
49858;SDS011;35756;52.346;13.622;2023-11-19T12:32:24;6.15;;;2.30;;
49858;SDS011;35756;52.346;13.622;2023-11-19T12:34:49;5.82;;;2.20;;
49858;SDS011;35756;52.346;13.622;2023-11-19T12:37:15;6.50;;;2.38;;
49858;SDS011;35756;52.346;13.622;2023-11-19T12:39:40;7.50;;;2.40;;
49858;SDS011;35756;52.346;13.622;2023-11-19T12:42:05;7.55;;;2.50;;
49858;SDS011;35756;52.346;13.622;2023-11-19T12:44:31;6.35;;;2.45;;
49858;SDS011;35756;52.346;13.622;2023-11-19T12:47:03;5.38;;;2.67;;
49858;SDS011;35756;52.346;13.622;2023-11-19T12:49:29;6.80;;;2.03;;
49858;SDS011;35756;52.346;13.622;2023-11-19T12:51:55;4.78;;;2.08;;
49858;SDS011;35756;52.346;13.622;2023-11-19T12:54:20;7.00;;;2.85;;
49858;SDS011;35756;52.346;13.622;2023-11-19T12:56:56;7.78;;;3.10;;
49858;SDS011;35756;52.346;13.622;2023-11-19T12:59:21;7.95;;;2.20;;
49858;SDS011;35756;52.346;13.622;2023-11-19T13:01:56;6.28;;;2.90;;
49858;SDS011;35756;52.346;13.622;2023-11-19T13:04:22;5.13;;;2.10;;
49858;SDS011;35756;52.346;13.622;2023-11-19T13:06:49;9.95;;;3.17;;
49858;SDS011;35756;52.346;13.622;2023-11-19T13:09:24;14.25;;;3.00;;
49858;SDS011;35756;52.346;13.622;2023-11-19T13:11:50;6.38;;;3.65;;
49858;SDS011;35756;52.346;13.622;2023-11-19T13:14:15;6.75;;;2.40;;
49858;SDS011;35756;52.346;13.622;2023-11-19T13:16:41;8.63;;;2.80;;
49858;SDS011;35756;52.346;13.622;2023-11-19T13:19:07;11.00;;;3.10;;
49858;SDS011;35756;52.346;13.622;2023-11-19T13:21:33;7.25;;;2.85;;
49858;SDS011;35756;52.346;13.622;2023-11-19T13:23:59;6.38;;;2.72;;
49858;SDS011;35756;52.346;13.622;2023-11-19T13:26:24;5.93;;;2.70;;
49858;SDS011;35756;52.346;13.622;2023-11-19T13:28:49;16.00;;;3.50;;
49858;SDS011;35756;52.346;13.622;2023-11-19T13:31:15;9.10;;;3.20;;
49858;SDS011;35756;52.346;13.622;2023-11-19T13:33:40;7.72;;;3.35;;
49858;SDS011;35756;52.346;13.622;2023-11-19T13:36:06;7.75;;;3.03;;
49858;SDS011;35756;52.346;13.622;2023-11-19T13:38:33;11.00;;;3.00;;
49858;SDS011;35756;52.346;13.622;2023-11-19T13:41:00;6.05;;;2.80;;
49858;SDS011;35756;52.346;13.622;2023-11-19T13:43:25;8.25;;;3.08;;
49858;SDS011;35756;52.346;13.622;2023-11-19T13:45:52;11.48;;;2.90;;
49858;SDS011;35756;52.346;13.622;2023-11-19T13:48:18;9.60;;;2.58;;
49858;SDS011;35756;52.346;13.622;2023-11-19T13:50:43;14.43;;;3.38;;
49858;SDS011;35756;52.346;13.622;2023-11-19T13:53:08;11.68;;;3.42;;
49858;SDS011;35756;52.346;13.622;2023-11-19T13:55:34;13.75;;;3.63;;
49858;SDS011;35756;52.346;13.622;2023-11-19T13:57:59;10.77;;;3.58;;
49858;SDS011;35756;52.346;13.622;2023-11-19T14:00:24;11.07;;;3.47;;
49858;SDS011;35756;52.346;13.622;2023-11-19T14:02:50;10.93;;;3.17;;
49858;SDS011;35756;52.346;13.622;2023-11-19T14:05:15;8.95;;;3.45;;
49858;SDS011;35756;52.346;13.622;2023-11-19T14:07:44;5.53;;;2.55;;
49858;SDS011;35756;52.346;13.622;2023-11-19T14:10:11;8.82;;;2.90;;
49858;SDS011;35756;52.346;13.622;2023-11-19T14:12:36;8.02;;;2.60;;
49858;SDS011;35756;52.346;13.622;2023-11-19T14:15:03;12.48;;;3.22;;
49858;SDS011;35756;52.346;13.622;2023-11-19T14:17:30;8.18;;;3.15;;
49858;SDS011;35756;52.346;13.622;2023-11-19T14:19:56;10.30;;;2.95;;
49858;SDS011;35756;52.346;13.622;2023-11-19T14:22:21;6.82;;;2.10;;
49858;SDS011;35756;52.346;13.622;2023-11-19T14:24:46;10.23;;;2.80;;
49858;SDS011;35756;52.346;13.622;2023-11-19T14:27:12;8.57;;;2.55;;
49858;SDS011;35756;52.346;13.622;2023-11-19T14:29:37;11.75;;;2.63;;
49858;SDS011;35756;52.346;13.622;2023-11-19T14:32:03;9.60;;;2.60;;
49858;SDS011;35756;52.346;13.622;2023-11-19T14:34:31;9.25;;;3.40;;
49858;SDS011;35756;52.346;13.622;2023-11-19T14:36:57;8.00;;;2.88;;
49858;SDS011;35756;52.346;13.622;2023-11-19T14:39:23;8.18;;;3.33;;
49858;SDS011;35756;52.346;13.622;2023-11-19T14:41:48;14.63;;;3.88;;
49858;SDS011;35756;52.346;13.622;2023-11-19T14:44:14;9.65;;;3.08;;
49858;SDS011;35756;52.346;13.622;2023-11-19T14:46:40;9.65;;;2.83;;
49858;SDS011;35756;52.346;13.622;2023-11-19T14:49:05;15.73;;;3.53;;
49858;SDS011;35756;52.346;13.622;2023-11-19T14:51:32;8.25;;;2.80;;